Latham, NY

8:43 PM EDT on August 27, 2014 (GMT -0400)
Latham (East) | Change Station
CLOSE
Current Station
Personal Weather Station
Location: Latham, NY
Elevation: 295 ft
Nearby Weather Stations

Elev 295 ft 42.75 °N, 73.74 °W | Updated 1 minute ago

Partly Cloudy
Partly Cloudy
73.8 °F
Feels Like 75 °F
N
0.0
Wind Variable Wind from NW
Gusts 2.0 mph

Today
High -- | Low -- °F
--% Chance of Precip.
Yesterday
High -- | Low -- °F
Precip. -- in
6:14 AM 7:37 PM
Waxing Crescent, 5% visible
Pressure 29.92 in
Visibility 10.0 miles
Clouds Few 5500 ft
Few 16000 ft
Heat Index 75 °F
Dew Point 65 °F
Humidity 74%
Rainfall 0.00 in
Snow Depth Not available.
UV 0 out of 12
Pollen 9.40 out of 12
PM2.5 Moderate
Flu Activity Not available.
METAR KALB 272351Z 31008KT 10SM FEW055 FEW160 24/17 A2992 RMK AO2 SLP130 T02440172 10283 20244 53007

More Conditions Fewer Conditions

Pressure 29.92 in
Visibility 10.0 miles
Clouds Few 5500 ft
Few 16000 ft
Heat Index 75 °F
Dew Point 65 °F
Humidity 74%
Rainfall 0.00 in
Snow Depth Not available.
UV 0 out of 12
Pollen 9.40 out of 12
PM2.5 Moderate
Flu Activity Not available.
METAR KALB 272351Z 31008KT 10SM FEW055 FEW160 24/17 A2992 RMK AO2 SLP130 T02440172 10283 20244 53007

More Conditions Fewer Conditions

10-Day Weather Forecast

Almanac

Astronomy

Aug. 27, 2014 Rise Set
Actual Time 6:14 AM EDT 7:37 PM EDT
Civil Twilight 5:44 AM EDT 8:07 PM EDT
Nautical Twilight 5:09 AM EDT 8:42 PM EDT
Astronomical Twilight 4:31 AM EDT 9:20 PM EDT
Moon 8:11 AM EDT (8/27) 8:24 PM EDT (8/27)
Length of Visible Light 14h 22m
Length of Day
13h 23m
Tomorrow will be 2m 45s shorter.
Waxing Crescent, 5% of the Moon is Illuminated
Today
Waxing Crescent
Sep 2
First Quarter
Sep 8
Full
Sep 15
Last Quarter
Sep 24
New

Today's Extremes

State Highs State Lows

Community

WunderPhotos

Upload Photos

1,747,837 photos uploaded!

Nearby

Air Quality

  Air Quality AQ Index Pollutant
Yesterday Moderate
OZONE
Yesterday Moderate
PM2.5
Current Moderate
PM2.5
Wednesday Good
OZONE
Wednesday Good
PM2.5
Thursday Good
OZONE
Thursday Good
PM2.5

Snow Depth

Station Depth Elevation
No new snow has been reported.

Earthquake Activity

City Distance Mag. Time & Date
No recent earthquake activity has been reported nearby.
Minimum magnitude displayed is 2.5.

Coastal Water Temperatures

Place Temperature
No Stations Reporting

Nearby Weather Stations